IBE6845 SAEZ-LEMD
Flight info
| Callsign | IBE6845 |
|---|---|
| Flight time | N/A |
| Altitude | 35000 |
| Route | DORVO1A DORVO UN857 KOVGO DCT MOLSU UN857 MEDIT/N0465F370 UN857 BOTNO/N0453F390 UN857 OPADU DCT GUNET N857 DEREV/N0453F400 N857 LZR DCT OXACA DCT SOTUK |
| Aircraft | A343/H-SDE2E3FGHIJ4J5M1RWXY/LB1D1 |
Departure
| Time | 2026-05-06 12:55 |
|---|---|
| Airport | Ezeiza International Airport - Ministro Pistarini (SAEZ) |
Arrival
| Time | N/A |
|---|---|
| Airport | Adolfo Suárez Madrid–Barajas Airport (LEMD) |
| Time | Latitude | Longitude | Altitude | Speed | Heading |
|---|---|---|---|---|---|
| 2026-05-06 12:40 | -34.81602 | -58.53984 | 84 ft | 0 kts | 321° |
| 2026-05-06 12:45 | -34.81606 | -58.53980 | 83 ft | 3 kts | 321° |
| 2026-05-06 12:46 | -34.81621 | -58.53966 | 84 ft | 3 kts | 321° |
| 2026-05-06 12:46 | -34.81635 | -58.53951 | 84 ft | 3 kts | 321° |
| 2026-05-06 12:46 | -34.81648 | -58.53934 | 80 ft | 3 kts | 305° |
| 2026-05-06 12:46 | -34.81659 | -58.53916 | 80 ft | 3 kts | 306° |
| 2026-05-06 12:47 | -34.81669 | -58.53896 | 79 ft | 3 kts | 291° |
| 2026-05-06 12:47 | -34.81676 | -58.53875 | 79 ft | 3 kts | 308° |
| 2026-05-06 12:47 | -34.81687 | -58.53857 | 79 ft | 3 kts | 287° |
| 2026-05-06 12:47 | -34.81690 | -58.53833 | 79 ft | 3 kts | 243° |
| 2026-05-06 12:48 | -34.81688 | -58.53828 | 79 ft | 0 kts | 232° |
| 2026-05-06 12:50 | -34.81692 | -58.53835 | 84 ft | 5 kts | 234° |
| 2026-05-06 12:51 | -34.81736 | -58.53917 | 83 ft | 17 kts | 238° |
| 2026-05-06 12:51 | -34.81789 | -58.54057 | 80 ft | 20 kts | 259° |
| 2026-05-06 12:51 | -34.81779 | -58.54266 | 83 ft | 30 kts | 278° |
| 2026-05-06 12:51 | -34.81754 | -58.54544 | 84 ft | 34 kts | 266° |
| 2026-05-06 12:52 | -34.81777 | -58.54781 | 83 ft | 27 kts | 279° |
| 2026-05-06 12:52 | -34.81736 | -58.54997 | 81 ft | 25 kts | 282° |
| 2026-05-06 12:52 | -34.81703 | -58.55184 | 83 ft | 17 kts | 282° |
| 2026-05-06 12:52 | -34.81720 | -58.55313 | 82 ft | 15 kts | 227° |
| 2026-05-06 12:53 | -34.81811 | -58.55330 | 85 ft | 13 kts | 160° |
| 2026-05-06 12:53 | -34.81883 | -58.55313 | 87 ft | 8 kts | 186° |
| 2026-05-06 12:53 | -34.81915 | -58.55292 | 82 ft | 3 kts | 118° |
| 2026-05-06 12:53 | -34.81917 | -58.55274 | 82 ft | 2 kts | 101° |
| 2026-05-06 12:54 | -34.81944 | -58.55107 | 84 ft | 46 kts | 102° |
| 2026-05-06 12:54 | -34.82054 | -58.54514 | 89 ft | 96 kts | 102° |
| 2026-05-06 12:54 | -34.82227 | -58.53540 | 90 ft | 138 kts | 102° |
| 2026-05-06 12:54 | -34.82470 | -58.52268 | 226 ft | 160 kts | 102° |
| 2026-05-06 12:55 | -34.82724 | -58.51030 | 868 ft | 147 kts | 108° |
| 2026-05-06 12:55 | -34.83322 | -58.49982 | 1184 ft | 160 kts | 127° |
| 2026-05-06 12:55 | -34.84099 | -58.48912 | 1407 ft | 176 kts | 130° |
| 2026-05-06 12:55 | -34.84949 | -58.47779 | 1638 ft | 190 kts | 129° |
| 2026-05-06 12:56 | -34.85818 | -58.46475 | 1840 ft | 208 kts | 119° |
| 2026-05-06 12:56 | -34.86583 | -58.44885 | 2104 ft | 225 kts | 116° |
| 2026-05-06 12:56 | -34.87396 | -58.43152 | 2394 ft | 245 kts | 117° |
| 2026-05-06 12:56 | -34.88259 | -58.41299 | 2852 ft | 256 kts | 115° |
| 2026-05-06 12:57 | -34.89120 | -58.39370 | 3389 ft | 262 kts | 111° |
| 2026-05-06 12:57 | -34.89681 | -58.37253 | 3900 ft | 266 kts | 95° |
| 2026-05-06 12:57 | -34.89638 | -58.35013 | 4461 ft | 266 kts | 75° |
| 2026-05-06 12:57 | -34.89227 | -58.32828 | 5012 ft | 271 kts | 73° |
| 2026-05-06 12:58 | -34.88747 | -58.30590 | 5621 ft | 274 kts | 71° |
| 2026-05-06 12:58 | -34.88217 | -58.28341 | 6215 ft | 278 kts | 70° |
| 2026-05-06 12:58 | -34.87686 | -58.26060 | 6816 ft | 282 kts | 71° |
| 2026-05-06 12:58 | -34.87167 | -58.23752 | 7443 ft | 284 kts | 71° |
| 2026-05-06 12:59 | -34.86659 | -58.21417 | 8027 ft | 287 kts | 71° |
| 2026-05-06 12:59 | -34.86149 | -58.19055 | 8600 ft | 290 kts | 72° |
| 2026-05-06 12:59 | -34.85636 | -58.16668 | 9163 ft | 294 kts | 72° |
| 2026-05-06 12:59 | -34.85118 | -58.14243 | 9702 ft | 297 kts | 72° |
| 2026-05-06 13:00 | -34.84591 | -58.11778 | 10170 ft | 304 kts | 72° |
| 2026-05-06 13:00 | -34.84043 | -58.09230 | 10429 ft | 318 kts | 72° |
| 2026-05-06 13:00 | -34.83470 | -58.06564 | 10649 ft | 333 kts | 72° |
| 2026-05-06 13:00 | -34.82875 | -58.03786 | 10880 ft | 346 kts | 72° |
| 2026-05-06 13:01 | -34.82255 | -58.00896 | 11097 ft | 358 kts | 72° |
| 2026-05-06 13:01 | -34.81614 | -57.97910 | 11307 ft | 371 kts | 72° |
| 2026-05-06 13:01 | -34.80954 | -57.94830 | 11545 ft | 381 kts | 72° |
| 2026-05-06 13:01 | -34.80507 | -57.92750 | 11792 ft | 385 kts | 72° |
| 2026-05-06 13:02 | -34.79826 | -57.89577 | 12190 ft | 390 kts | 72° |
| 2026-05-06 13:02 | -34.79134 | -57.86362 | 12575 ft | 395 kts | 72° |
| 2026-05-06 13:02 | -34.78433 | -57.83110 | 13005 ft | 399 kts | 72° |
| 2026-05-06 13:02 | -34.77724 | -57.79828 | 13430 ft | 403 kts | 72° |
| 2026-05-06 13:03 | -34.77007 | -57.76518 | 13844 ft | 407 kts | 72° |
| 2026-05-06 13:03 | -34.76283 | -57.73178 | 14280 ft | 410 kts | 72° |
| 2026-05-06 13:03 | -34.75553 | -57.69810 | 14671 ft | 414 kts | 72° |
| 2026-05-06 13:03 | -34.74815 | -57.66410 | 15108 ft | 418 kts | 72° |
| 2026-05-06 13:04 | -34.74066 | -57.62977 | 15525 ft | 421 kts | 72° |
| 2026-05-06 13:04 | -34.73313 | -57.59522 | 15958 ft | 425 kts | 72° |
| 2026-05-06 13:04 | -34.72551 | -57.56036 | 16375 ft | 429 kts | 72° |
| 2026-05-06 13:04 | -34.71633 | -57.52636 | 16765 ft | 429 kts | 63° |
| 2026-05-06 13:05 | -34.70136 | -57.49508 | 17211 ft | 427 kts | 51° |
| 2026-05-06 13:05 | -34.68354 | -57.46612 | 17617 ft | 429 kts | 47° |
| 2026-05-06 13:05 | -34.66440 | -57.43814 | 17986 ft | 432 kts | 45° |
| 2026-05-06 13:05 | -34.64466 | -57.41045 | 18398 ft | 435 kts | 45° |
| 2026-05-06 13:06 | -34.62468 | -57.38269 | 18806 ft | 438 kts | 45° |
| 2026-05-06 13:06 | -34.60465 | -57.35462 | 19227 ft | 440 kts | 45° |
| 2026-05-06 13:06 | -34.58467 | -57.32628 | 19638 ft | 443 kts | 45° |
| 2026-05-06 13:06 | -34.56467 | -57.29764 | 20050 ft | 445 kts | 45° |
| 2026-05-06 13:07 | -34.54464 | -57.26880 | 20398 ft | 449 kts | 45° |
| 2026-05-06 13:07 | -34.52451 | -57.23972 | 20767 ft | 451 kts | 45° |
| 2026-05-06 13:07 | -34.50425 | -57.21044 | 21126 ft | 454 kts | 45° |
| 2026-05-06 13:07 | -34.48390 | -57.18105 | 21475 ft | 457 kts | 45° |
| 2026-05-06 13:08 | -34.46342 | -57.15147 | 21847 ft | 459 kts | 45° |
| 2026-05-06 13:08 | -34.44312 | -57.12219 | 22188 ft | 461 kts | 45° |
| 2026-05-06 13:08 | -34.42244 | -57.09241 | 22523 ft | 464 kts | 45° |
| 2026-05-06 13:08 | -34.40160 | -57.06247 | 22885 ft | 466 kts | 45° |
| 2026-05-06 13:09 | -34.38065 | -57.03237 | 23233 ft | 467 kts | 45° |
| 2026-05-06 13:09 | -34.35965 | -57.00224 | 23541 ft | 470 kts | 45° |
| 2026-05-06 13:09 | -34.33848 | -56.97191 | 23867 ft | 472 kts | 45° |
| 2026-05-06 13:09 | -34.31723 | -56.94146 | 24180 ft | 475 kts | 45° |
| 2026-05-06 13:10 | -34.29585 | -56.91085 | 24479 ft | 477 kts | 45° |
| 2026-05-06 13:10 | -34.27431 | -56.88004 | 24769 ft | 480 kts | 45° |
| 2026-05-06 13:10 | -34.25267 | -56.84910 | 25039 ft | 483 kts | 45° |
| 2026-05-06 13:10 | -34.23091 | -56.81802 | 25305 ft | 485 kts | 45° |
| 2026-05-06 13:11 | -34.20897 | -56.78676 | 25565 ft | 488 kts | 45° |
| 2026-05-06 13:11 | -34.18697 | -56.75546 | 25844 ft | 490 kts | 45° |
| 2026-05-06 13:11 | -34.16481 | -56.72397 | 26088 ft | 493 kts | 45° |
| 2026-05-06 13:11 | -34.14254 | -56.69236 | 26302 ft | 495 kts | 45° |
| 2026-05-06 13:12 | -34.12013 | -56.66056 | 26563 ft | 497 kts | 45° |
| 2026-05-06 13:12 | -34.09787 | -56.62898 | 26783 ft | 500 kts | 45° |
| 2026-05-06 13:12 | -34.07531 | -56.59702 | 27015 ft | 502 kts | 45° |
| 2026-05-06 13:12 | -34.05263 | -56.56492 | 27257 ft | 504 kts | 45° |
| 2026-05-06 13:13 | -34.02979 | -56.53261 | 27453 ft | 506 kts | 45° |
| 2026-05-06 13:13 | -34.00686 | -56.50022 | 27690 ft | 508 kts | 45° |
| 2026-05-06 13:13 | -33.98380 | -56.46769 | 27945 ft | 510 kts | 45° |
| 2026-05-06 13:13 | -33.96066 | -56.43505 | 28148 ft | 512 kts | 45° |
| 2026-05-06 13:14 | -33.93747 | -56.40236 | 28374 ft | 514 kts | 46° |
| 2026-05-06 13:14 | -33.91446 | -56.36995 | 28573 ft | 516 kts | 45° |
| 2026-05-06 13:14 | -33.89108 | -56.33706 | 28758 ft | 518 kts | 46° |
| 2026-05-06 13:14 | -33.86759 | -56.30412 | 28990 ft | 519 kts | 45° |
| 2026-05-06 13:15 | -33.84398 | -56.27117 | 29148 ft | 521 kts | 45° |
| 2026-05-06 13:15 | -33.82021 | -56.23804 | 29335 ft | 523 kts | 45° |
| 2026-05-06 13:15 | -33.79638 | -56.20489 | 29533 ft | 524 kts | 45° |
| 2026-05-06 13:15 | -33.77256 | -56.17163 | 29719 ft | 526 kts | 46° |
| 2026-05-06 13:16 | -33.74863 | -56.13820 | 29885 ft | 527 kts | 45° |
| 2026-05-06 13:16 | -33.72471 | -56.10486 | 30068 ft | 527 kts | 46° |
| 2026-05-06 13:16 | -33.70077 | -56.07142 | 30269 ft | 528 kts | 46° |
| 2026-05-06 13:16 | -33.67687 | -56.03796 | 30509 ft | 528 kts | 45° |
| 2026-05-06 13:17 | -33.65292 | -56.00447 | 30731 ft | 528 kts | 45° |
| 2026-05-06 13:17 | -33.62900 | -55.97106 | 30913 ft | 529 kts | 45° |
| 2026-05-06 13:17 | -33.60531 | -55.93804 | 31113 ft | 529 kts | 45° |
| 2026-05-06 13:17 | -33.58124 | -55.90455 | 31288 ft | 530 kts | 45° |
| 2026-05-06 13:18 | -33.55714 | -55.87105 | 31511 ft | 530 kts | 45° |
| 2026-05-06 13:18 | -33.53310 | -55.83767 | 31708 ft | 530 kts | 45° |
| 2026-05-06 13:18 | -33.50900 | -55.80422 | 31905 ft | 530 kts | 45° |
| 2026-05-06 13:18 | -33.48488 | -55.77080 | 32092 ft | 530 kts | 44° |
| 2026-05-06 13:19 | -33.46072 | -55.73735 | 32249 ft | 531 kts | 44° |
| 2026-05-06 13:19 | -33.43650 | -55.70384 | 32424 ft | 531 kts | 44° |
| 2026-05-06 13:19 | -33.41236 | -55.67045 | 32578 ft | 532 kts | 44° |
| 2026-05-06 13:19 | -33.38808 | -55.63693 | 32759 ft | 531 kts | 44° |
| 2026-05-06 13:20 | -33.36386 | -55.60353 | 32924 ft | 532 kts | 44° |
| 2026-05-06 13:20 | -33.33958 | -55.57011 | 33053 ft | 532 kts | 44° |
| 2026-05-06 13:20 | -33.31530 | -55.53669 | 33214 ft | 533 kts | 44° |
| 2026-05-06 13:20 | -33.29095 | -55.50320 | 33371 ft | 533 kts | 44° |
| 2026-05-06 13:21 | -33.28305 | -55.49233 | 33419 ft | 533 kts | 44° |